createdAt,value
2023-02-15T00:00:11.477Z,5.60
2023-02-15T00:02:39.077Z,5.70
2023-02-15T00:05:07.620Z,5.70
2023-02-15T00:07:34.464Z,5.90
2023-02-15T00:10:01.238Z,5.90
2023-02-15T00:12:28.854Z,5.90
2023-02-15T00:14:55.819Z,6.00
2023-02-15T00:17:22.750Z,6.00
2023-02-15T00:19:50.047Z,6.00
2023-02-15T00:22:16.839Z,6.10
2023-02-15T00:24:43.957Z,6.10
2023-02-15T00:27:10.957Z,4.10
2023-02-15T00:29:38.496Z,6.10
2023-02-15T00:32:06.027Z,6.20
2023-02-15T00:34:33.669Z,6.10
2023-02-15T00:37:00.709Z,6.10
2023-02-15T00:39:29.976Z,6.20
2023-02-15T00:41:57.548Z,4.40
2023-02-15T00:44:24.739Z,6.20
2023-02-15T00:46:51.988Z,6.20
2023-02-15T00:49:18.916Z,6.30
2023-02-15T00:51:45.973Z,6.20
2023-02-15T00:54:13.280Z,6.20
2023-02-15T00:56:40.787Z,6.20
2023-02-15T00:59:09.193Z,4.60
2023-02-15T01:01:36.640Z,6.20
2023-02-15T01:04:04.485Z,6.10
2023-02-15T01:06:31.906Z,6.10
2023-02-15T01:08:59.284Z,4.90
2023-02-15T01:11:26.885Z,4.40
2023-02-15T01:13:56.861Z,4.90
2023-02-15T01:16:28.976Z,6.00
2023-02-15T01:18:56.553Z,5.50
2023-02-15T01:21:25.933Z,6.00
2023-02-15T01:23:53.556Z,5.20
2023-02-15T01:26:20.856Z,5.20
2023-02-15T01:28:48.326Z,5.80
2023-02-15T01:31:18.649Z,5.70
2023-02-15T01:33:47.114Z,5.70
2023-02-15T01:36:14.443Z,5.80
2023-02-15T01:38:43.539Z,5.70
2023-02-15T01:41:28.200Z,5.80
2023-02-15T01:43:58.482Z,5.70
2023-02-15T01:46:44.343Z,5.80
2023-02-15T01:49:14.356Z,6.00
2023-02-15T01:51:44.481Z,6.00
2023-02-15T01:54:26.358Z,6.10
2023-02-15T01:56:56.025Z,6.20
2023-02-15T01:59:25.715Z,6.20
2023-02-15T02:01:55.534Z,6.10
2023-02-15T02:04:41.715Z,6.10
2023-02-15T02:07:10.803Z,6.10
2023-02-15T02:09:41.732Z,6.00
2023-02-15T02:12:10.137Z,6.10
2023-02-15T02:14:38.555Z,5.40
2023-02-15T02:17:14.867Z,6.30
2023-02-15T02:20:21.797Z,6.30
2023-02-15T02:23:16.966Z,6.20
2023-02-15T02:26:11.116Z,6.10
2023-02-15T02:28:57.489Z,6.20
2023-02-15T02:31:45.538Z,6.20
2023-02-15T02:34:21.499Z,6.30
2023-02-15T02:37:00.919Z,6.40
2023-02-15T02:39:30.751Z,6.40
2023-02-15T02:42:02.175Z,6.40
2023-02-15T02:44:45.451Z,6.30
2023-02-15T02:47:31.148Z,6.20
2023-02-15T02:50:05.564Z,6.30
2023-02-15T02:52:38.531Z,6.30
2023-02-15T02:55:11.160Z,6.30
2023-02-15T02:57:42.992Z,6.20
2023-02-15T03:00:10.737Z,6.20
2023-02-15T03:02:42.421Z,6.10
2023-02-15T03:05:16.543Z,6.10
2023-02-15T03:07:50.755Z,6.10
2023-02-15T03:10:20.566Z,7.20
2023-02-15T03:12:49.153Z,6.00
2023-02-15T03:15:50.773Z,6.10
2023-02-15T03:18:23.260Z,5.50
2023-02-15T03:20:51.274Z,5.90
2023-02-15T03:23:23.051Z,6.00
2023-02-15T03:25:57.577Z,6.00
2023-02-15T03:28:33.230Z,5.40
2023-02-15T03:31:03.559Z,7.40
2023-02-15T03:33:31.103Z,6.10
2023-02-15T03:36:05.453Z,5.90
2023-02-15T03:38:55.398Z,5.50
2023-02-15T03:41:26.824Z,5.40
2023-02-15T03:44:00.072Z,5.50
2023-02-15T03:46:53.607Z,5.50
2023-02-15T03:49:35.634Z,5.60
2023-02-15T03:52:05.154Z,5.60
2023-02-15T03:54:44.091Z,5.80
2023-02-15T03:57:50.202Z,5.80
2023-02-15T04:00:35.912Z,5.90
2023-02-15T04:03:27.456Z,5.90
2023-02-15T04:05:54.835Z,5.00
2023-02-15T04:08:41.949Z,5.50
2023-02-15T04:11:09.465Z,5.40
2023-02-15T04:13:36.710Z,4.10
2023-02-15T04:16:05.551Z,5.30
2023-02-15T04:18:59.761Z,5.50
2023-02-15T04:21:48.164Z,5.40
2023-02-15T04:24:34.791Z,5.60
2023-02-15T04:27:02.132Z,5.50
2023-02-15T04:29:29.850Z,5.50
2023-02-15T04:31:59.471Z,5.40
2023-02-15T04:34:26.529Z,5.30
2023-02-15T04:36:53.916Z,5.20
2023-02-15T04:39:21.124Z,5.20
2023-02-15T04:41:50.004Z,5.20
2023-02-15T04:44:17.136Z,5.20
2023-02-15T04:46:44.423Z,5.20
2023-02-15T04:49:11.854Z,6.40
2023-02-15T04:51:38.871Z,5.20
2023-02-15T04:54:06.270Z,5.20
2023-02-15T04:56:35.083Z,5.20
2023-02-15T04:59:02.430Z,5.20
2023-02-15T05:01:30.264Z,5.00
2023-02-15T05:03:57.472Z,5.40
2023-02-15T05:06:24.427Z,5.30
2023-02-15T05:08:51.560Z,5.30
2023-02-15T05:11:18.560Z,5.30
2023-02-15T05:13:45.985Z,5.30
2023-02-15T05:16:13.320Z,5.30
2023-02-15T05:18:40.488Z,5.30
2023-02-15T05:21:09.900Z,5.40
2023-02-15T05:23:39.516Z,5.30
2023-02-15T05:26:25.250Z,5.20
2023-02-15T05:28:52.391Z,5.20
2023-02-15T05:31:21.020Z,5.20
2023-02-15T05:33:48.396Z,4.00
2023-02-15T05:36:18.440Z,5.20
2023-02-15T05:38:46.025Z,5.20
2023-02-15T05:41:13.101Z,5.20
2023-02-15T05:43:40.866Z,5.40
2023-02-15T05:46:08.424Z,6.90
2023-02-15T05:48:35.920Z,5.30
2023-02-15T05:51:07.176Z,5.40
2023-02-15T05:53:36.120Z,5.30
2023-02-15T05:56:03.968Z,5.30
2023-02-15T05:58:34.462Z,5.40
2023-02-15T06:01:08.027Z,5.40
2023-02-15T06:03:34.866Z,5.50
2023-02-15T06:06:02.380Z,5.60
2023-02-15T06:08:29.333Z,5.60
2023-02-15T06:10:56.781Z,5.50
2023-02-15T06:13:23.734Z,5.60
2023-02-15T06:15:51.051Z,5.50
2023-02-15T06:18:18.161Z,5.40
2023-02-15T06:20:47.590Z,5.40
2023-02-15T06:23:14.659Z,5.30
2023-02-15T06:25:41.730Z,5.20
2023-02-15T06:28:09.026Z,5.20
2023-02-15T06:30:36.077Z,5.20
2023-02-15T06:33:03.004Z,5.30
2023-02-15T06:35:30.311Z,5.30
2023-02-15T06:37:57.149Z,5.20
2023-02-15T06:40:23.972Z,5.20
2023-02-15T06:42:51.080Z,5.20
2023-02-15T06:45:18.060Z,5.20
2023-02-15T06:47:45.041Z,5.10
2023-02-15T06:50:12.285Z,5.10
2023-02-15T06:52:39.648Z,5.20
2023-02-15T06:55:07.253Z,5.30
2023-02-15T06:57:34.245Z,5.40
2023-02-15T07:00:01.277Z,5.50
2023-02-15T07:02:28.655Z,5.50
2023-02-15T07:04:55.534Z,5.60
2023-02-15T07:07:22.996Z,5.70
2023-02-15T07:09:50.224Z,5.80
2023-02-15T07:12:36.349Z,5.80
2023-02-15T07:15:07.377Z,5.90
2023-02-15T07:17:36.459Z,6.00
2023-02-15T07:20:09.043Z,6.10
2023-02-15T07:22:37.413Z,6.30
2023-02-15T07:25:06.164Z,6.30
2023-02-15T07:27:33.658Z,6.40
2023-02-15T07:30:05.571Z,6.50
2023-02-15T07:32:34.164Z,6.60
2023-02-15T07:35:01.468Z,6.60
2023-02-15T07:37:29.126Z,6.60
2023-02-15T07:39:56.420Z,6.80
2023-02-15T07:42:24.157Z,6.80
2023-02-15T07:44:51.102Z,6.90
2023-02-15T07:47:18.406Z,7.00
2023-02-15T07:49:46.005Z,7.10
2023-02-15T07:52:12.859Z,7.10
2023-02-15T07:54:39.836Z,7.20
2023-02-15T07:57:07.099Z,7.30
2023-02-15T07:59:33.944Z,7.40
2023-02-15T08:02:00.867Z,7.40
2023-02-15T08:04:27.975Z,7.50
2023-02-15T08:06:55.704Z,7.60
2023-02-15T08:09:23.584Z,7.60
2023-02-15T08:11:50.924Z,6.50
2023-02-15T08:14:23.139Z,7.70
2023-02-15T08:16:51.643Z,7.90
2023-02-15T08:19:21.707Z,8.10
2023-02-15T08:21:54.653Z,8.20
2023-02-15T08:24:23.674Z,8.30
2023-02-15T08:26:52.766Z,8.30
2023-02-15T08:29:25.154Z,8.40
2023-02-15T08:31:56.167Z,8.70
2023-02-15T08:34:23.520Z,8.80
2023-02-15T08:36:50.710Z,9.00
2023-02-15T08:39:17.595Z,9.10
2023-02-15T08:41:47.376Z,9.20
2023-02-15T08:44:16.646Z,9.50
2023-02-15T08:46:45.692Z,9.50
2023-02-15T08:49:15.799Z,9.70
2023-02-15T08:51:45.821Z,9.90
2023-02-15T08:54:21.749Z,10.20
2023-02-15T08:56:48.906Z,10.40
2023-02-15T08:59:18.669Z,10.70
2023-02-15T09:01:48.611Z,10.90
2023-02-15T09:04:16.884Z,11.10
2023-02-15T09:06:48.307Z,11.10
2023-02-15T09:09:17.176Z,11.20
2023-02-15T09:11:45.914Z,11.40
2023-02-15T09:14:15.554Z,11.70
2023-02-15T09:16:47.264Z,11.90
2023-02-15T09:19:14.256Z,12.00
2023-02-15T09:21:41.929Z,12.20
2023-02-15T09:24:12.130Z,12.40
2023-02-15T09:26:41.902Z,12.20
2023-02-15T09:29:10.466Z,12.80
2023-02-15T09:31:45.377Z,13.00
2023-02-15T09:34:14.861Z,13.20
2023-02-15T09:36:42.562Z,13.50
2023-02-15T09:39:16.031Z,13.70
2023-02-15T09:41:42.886Z,14.10
2023-02-15T09:44:57.519Z,14.30
2023-02-15T09:48:09.902Z,14.50
2023-02-15T09:51:27.456Z,14.50
2023-02-15T09:54:24.444Z,14.50
2023-02-15T09:56:58.287Z,14.80
2023-02-15T09:59:51.652Z,15.20
2023-02-15T10:02:21.690Z,15.60
2023-02-15T10:05:01.444Z,16.00
2023-02-15T10:07:47.086Z,16.00
2023-02-15T10:10:37.117Z,16.10
2023-02-15T10:13:06.981Z,16.30
2023-02-15T10:15:59.101Z,16.40
2023-02-15T10:18:55.169Z,17.00
2023-02-15T10:21:42.553Z,17.80
2023-02-15T10:24:21.587Z,18.40
2023-02-15T10:26:49.939Z,18.90
2023-02-15T10:29:50.187Z,19.50
2023-02-15T10:32:24.583Z,20.20
2023-02-15T10:34:53.399Z,20.50
2023-02-15T10:37:26.812Z,20.80
2023-02-15T10:40:15.615Z,20.60
2023-02-15T10:43:15.727Z,21.10
2023-02-15T10:46:13.504Z,21.30
2023-02-15T10:48:52.712Z,22.10
2023-02-15T10:51:58.204Z,22.90
2023-02-15T10:54:50.070Z,23.30
2023-02-15T10:57:20.115Z,24.00
2023-02-15T11:00:00.629Z,24.70
2023-02-15T11:02:46.757Z,25.10
2023-02-15T11:05:30.777Z,25.90
2023-02-15T11:08:00.609Z,26.60
2023-02-15T11:10:51.941Z,26.90
2023-02-15T11:13:21.813Z,26.30
2023-02-15T11:15:57.268Z,26.50
2023-02-15T11:18:35.442Z,27.10
2023-02-15T11:21:11.560Z,27.60
2023-02-15T11:23:45.635Z,28.30
2023-02-15T11:26:26.387Z,28.80
2023-02-15T11:29:13.502Z,29.30
2023-02-15T11:31:56.077Z,30.00
2023-02-15T11:34:28.281Z,29.80
2023-02-15T11:36:59.501Z,30.10
2023-02-15T11:39:29.687Z,29.60
2023-02-15T11:42:00.528Z,30.00
2023-02-15T11:44:35.626Z,30.10
2023-02-15T11:47:03.601Z,30.50
2023-02-15T11:49:35.738Z,30.70
2023-02-15T11:52:06.984Z,31.20
2023-02-15T11:54:40.681Z,31.30
2023-02-15T11:57:24.097Z,31.40
2023-02-15T11:59:57.449Z,31.80
2023-02-15T12:02:27.586Z,32.10
2023-02-15T12:05:05.187Z,32.90
2023-02-15T12:07:35.472Z,32.90
2023-02-15T12:10:25.866Z,33.50
2023-02-15T12:13:12.804Z,33.00
2023-02-15T12:15:44.209Z,32.80
2023-02-15T12:18:45.424Z,32.90
2023-02-15T12:21:35.104Z,33.30
2023-02-15T12:24:13.251Z,33.30
2023-02-15T12:26:41.682Z,33.70
2023-02-15T12:29:17.384Z,33.60
2023-02-15T12:31:47.750Z,33.40
2023-02-15T12:34:27.944Z,33.00
2023-02-15T12:36:59.153Z,32.30
2023-02-15T12:39:30.877Z,31.60
2023-02-15T12:42:17.027Z,31.90
2023-02-15T12:45:00.404Z,32.80
2023-02-15T12:47:29.246Z,33.40
2023-02-15T12:50:20.046Z,33.10
2023-02-15T12:52:49.674Z,33.20
2023-02-15T12:55:30.839Z,33.50
2023-02-15T12:58:20.885Z,33.80
2023-02-15T13:00:47.914Z,34.30
2023-02-15T13:03:24.950Z,34.20
2023-02-15T13:05:57.197Z,34.30
2023-02-15T13:08:32.775Z,34.70
2023-02-15T13:11:10.074Z,34.50
2023-02-15T13:13:51.221Z,34.60
2023-02-15T13:16:26.096Z,35.10
2023-02-15T13:18:53.659Z,35.20
2023-02-15T13:21:29.043Z,34.90
2023-02-15T13:24:06.327Z,34.50
2023-02-15T13:26:35.846Z,34.50
2023-02-15T13:29:12.950Z,34.40
2023-02-15T13:31:41.393Z,34.20
2023-02-15T13:34:18.162Z,33.90
2023-02-15T13:36:51.575Z,33.80
2023-02-15T13:39:30.808Z,34.20
2023-02-15T13:42:04.781Z,34.40
2023-02-15T13:44:57.963Z,34.40
2023-02-15T13:47:43.595Z,34.10
2023-02-15T13:50:36.592Z,34.30
2023-02-15T13:53:21.887Z,34.10
2023-02-15T13:56:07.118Z,34.10
2023-02-15T13:58:49.278Z,34.10
2023-02-15T14:01:38.868Z,33.90
2023-02-15T14:04:19.702Z,33.80
2023-02-15T14:06:49.460Z,33.60
2023-02-15T14:09:31.579Z,33.40
2023-02-15T14:12:11.064Z,33.40
2023-02-15T14:15:19.407Z,33.40
2023-02-15T14:18:01.336Z,33.20
2023-02-15T14:20:40.121Z,33.20
2023-02-15T14:23:30.586Z,33.00
2023-02-15T14:26:05.417Z,32.50
2023-02-15T14:28:56.349Z,32.20
2023-02-15T14:31:38.761Z,32.20
2023-02-15T14:34:05.774Z,32.10
2023-02-15T14:36:33.467Z,32.20
2023-02-15T14:39:29.312Z,31.80
2023-02-15T14:42:10.723Z,31.40
2023-02-15T14:44:43.517Z,31.30
2023-02-15T14:47:26.492Z,30.90
2023-02-15T14:49:53.516Z,30.70
2023-02-15T14:52:20.366Z,30.20
2023-02-15T14:54:47.141Z,30.40
2023-02-15T14:57:14.344Z,30.10
2023-02-15T14:59:53.448Z,30.00
2023-02-15T15:02:25.366Z,29.70
2023-02-15T15:05:08.918Z,29.60
2023-02-15T15:07:42.630Z,29.60
2023-02-15T15:10:18.226Z,29.00
2023-02-15T15:12:50.844Z,28.30
2023-02-15T15:15:30.746Z,28.40
2023-02-15T15:18:06.886Z,28.70
2023-02-15T15:20:45.325Z,28.50
2023-02-15T15:23:21.008Z,28.20
2023-02-15T15:26:19.511Z,28.10
2023-02-15T15:28:46.427Z,28.00
2023-02-15T15:31:41.521Z,27.40
2023-02-15T15:34:15.524Z,27.00
2023-02-15T15:36:51.943Z,28.20
2023-02-15T15:39:40.617Z,26.10
2023-02-15T15:42:40.790Z,25.80
2023-02-15T15:45:27.480Z,25.50
2023-02-15T15:48:13.134Z,24.70
2023-02-15T15:50:43.930Z,24.10
2023-02-15T15:53:24.098Z,23.20
2023-02-15T15:55:58.824Z,23.00
2023-02-15T15:58:26.526Z,22.70
2023-02-15T16:00:59.276Z,22.20
2023-02-15T16:03:29.921Z,21.40
2023-02-15T16:06:01.117Z,20.10
2023-02-15T16:08:31.135Z,19.00
2023-02-15T16:10:59.205Z,17.90
2023-02-15T16:13:27.769Z,17.30
2023-02-15T16:15:57.422Z,16.80
2023-02-15T16:18:27.544Z,17.00
2023-02-15T16:20:56.446Z,15.70
2023-02-15T16:23:35.861Z,15.30
2023-02-15T16:26:21.390Z,14.80
2023-02-15T16:28:52.776Z,14.50
2023-02-15T16:31:21.116Z,14.00
2023-02-15T16:33:48.024Z,12.90
2023-02-15T16:36:24.211Z,13.70
2023-02-15T16:38:51.100Z,14.10
2023-02-15T16:41:26.397Z,13.50
2023-02-15T16:43:55.281Z,13.60
2023-02-15T16:46:30.832Z,13.10
2023-02-15T16:49:04.925Z,13.00
2023-02-15T16:51:34.975Z,12.90
2023-02-15T16:54:08.287Z,12.70
2023-02-15T16:56:37.269Z,12.60
2023-02-15T16:59:04.455Z,12.40
2023-02-15T17:01:36.125Z,12.20
2023-02-15T17:04:33.257Z,12.00
2023-02-15T17:07:02.102Z,11.90
2023-02-15T17:09:29.040Z,11.80
2023-02-15T17:11:56.496Z,11.70
2023-02-15T17:14:32.689Z,11.70
2023-02-15T17:17:13.268Z,11.70
2023-02-15T17:19:53.005Z,11.60
2023-02-15T17:22:27.987Z,11.50
2023-02-15T17:25:05.333Z,11.40
2023-02-15T17:27:34.120Z,11.40
2023-02-15T17:30:15.998Z,11.20
2023-02-15T17:32:55.538Z,11.00
2023-02-15T17:35:28.795Z,10.90
2023-02-15T17:38:29.683Z,10.80
2023-02-15T17:40:58.317Z,10.70
2023-02-15T17:43:26.150Z,10.60
2023-02-15T17:45:53.911Z,10.60
2023-02-15T17:48:23.883Z,10.80
2023-02-15T17:50:51.299Z,10.40
2023-02-15T17:53:19.440Z,10.30
2023-02-15T17:55:46.986Z,10.30
2023-02-15T17:58:15.918Z,10.20
2023-02-15T18:01:23.826Z,10.20
2023-02-15T18:04:10.957Z,10.00
2023-02-15T18:07:01.162Z,10.00
2023-02-15T18:09:47.283Z,9.80
2023-02-15T18:12:32.941Z,9.60
2023-02-15T18:15:01.414Z,9.60
2023-02-15T18:17:30.788Z,9.50
2023-02-15T18:19:58.367Z,9.60
2023-02-15T18:22:25.315Z,9.50
2023-02-15T18:24:52.606Z,9.40
2023-02-15T18:27:21.437Z,9.30
2023-02-15T18:29:49.123Z,9.20
2023-02-15T18:32:31.768Z,9.20
2023-02-15T18:34:59.313Z,9.10
2023-02-15T18:37:30.253Z,9.10
2023-02-15T18:39:57.331Z,9.10
2023-02-15T18:42:32.496Z,9.10
2023-02-15T18:45:07.440Z,9.00
2023-02-15T18:47:34.295Z,9.00
2023-02-15T18:50:01.144Z,9.00
2023-02-15T18:52:34.821Z,9.00
2023-02-15T18:55:19.475Z,8.90
2023-02-15T18:57:48.256Z,9.50
2023-02-15T19:00:25.852Z,8.80
2023-02-15T19:02:57.867Z,8.60
2023-02-15T19:05:27.730Z,8.50
2023-02-15T19:07:55.639Z,8.40
2023-02-15T19:10:25.465Z,8.40
2023-02-15T19:12:53.994Z,8.30
2023-02-15T19:15:26.372Z,8.30
2023-02-15T19:17:54.038Z,8.20
2023-02-15T19:20:27.868Z,8.20
2023-02-15T19:22:57.216Z,8.20
2023-02-15T19:25:30.154Z,8.10
2023-02-15T19:27:58.941Z,8.10
2023-02-15T19:30:30.092Z,8.00
2023-02-15T19:33:00.614Z,7.80
2023-02-15T19:35:37.489Z,7.60
2023-02-15T19:38:19.902Z,7.50
2023-02-15T19:40:52.970Z,7.40
2023-02-15T19:43:26.040Z,7.30
2023-02-15T19:45:53.738Z,7.30
2023-02-15T19:48:20.626Z,7.30
2023-02-15T19:50:48.557Z,7.20
2023-02-15T19:53:23.921Z,7.20
2023-02-15T19:55:52.163Z,7.10
2023-02-15T19:58:19.824Z,7.10
2023-02-15T20:00:49.331Z,7.10
2023-02-15T20:03:24.767Z,7.10
2023-02-15T20:05:51.884Z,7.00
2023-02-15T20:08:21.758Z,6.90
2023-02-15T20:10:49.383Z,6.90
2023-02-15T20:13:19.097Z,6.80
2023-02-15T20:15:47.629Z,6.80
2023-02-15T20:18:15.031Z,6.80
2023-02-15T20:20:48.475Z,6.80
2023-02-15T20:23:31.390Z,6.80
2023-02-15T20:26:01.041Z,6.80
2023-02-15T20:28:30.060Z,6.90
2023-02-15T20:30:57.405Z,6.90
2023-02-15T20:33:24.975Z,7.00
2023-02-15T20:35:52.308Z,6.90
2023-02-15T20:38:26.566Z,6.90
2023-02-15T20:41:13.127Z,6.80
2023-02-15T20:43:41.017Z,6.70
2023-02-15T20:46:08.518Z,6.50
2023-02-15T20:48:36.275Z,6.60
2023-02-15T20:51:03.966Z,6.60
2023-02-15T20:53:34.015Z,5.60
2023-02-15T20:56:01.789Z,6.60
2023-02-15T20:58:31.119Z,6.50
2023-02-15T21:00:59.465Z,6.50
2023-02-15T21:03:31.097Z,6.50
2023-02-15T21:05:59.194Z,6.50
2023-02-15T21:08:27.432Z,6.40
2023-02-15T21:10:55.027Z,6.40
2023-02-15T21:13:29.864Z,6.40
2023-02-15T21:15:58.782Z,6.40
2023-02-15T21:18:29.007Z,6.40
2023-02-15T21:20:59.490Z,6.30
2023-02-15T21:23:39.475Z,6.40
2023-02-15T21:26:07.740Z,6.10
2023-02-15T21:28:34.878Z,6.00
2023-02-15T21:31:03.284Z,6.00
2023-02-15T21:33:30.454Z,5.90
2023-02-15T21:35:58.500Z,5.80
2023-02-15T21:38:30.512Z,5.70
2023-02-15T21:41:17.774Z,5.60
2023-02-15T21:44:03.247Z,5.60
2023-02-15T21:46:45.769Z,5.60
2023-02-15T21:49:13.065Z,5.50
2023-02-15T21:52:01.809Z,5.50
2023-02-15T21:54:28.931Z,5.50
2023-02-15T21:56:55.795Z,5.60
2023-02-15T21:59:22.960Z,5.40
2023-02-15T22:01:51.760Z,4.00
2023-02-15T22:04:29.971Z,5.00
2023-02-15T22:06:57.957Z,3.60
2023-02-15T22:09:27.250Z,5.30
2023-02-15T22:11:55.034Z,5.30
2023-02-15T22:14:38.411Z,5.20
2023-02-15T22:17:20.765Z,5.30
2023-02-15T22:19:49.748Z,5.30
2023-02-15T22:22:16.989Z,5.30
2023-02-15T22:24:45.069Z,5.20
2023-02-15T22:27:25.676Z,5.30
2023-02-15T22:29:53.842Z,5.20
2023-02-15T22:32:23.963Z,5.20
2023-02-15T22:34:52.175Z,5.20
2023-02-15T22:37:19.153Z,3.10
2023-02-15T22:39:46.127Z,5.20
2023-02-15T22:42:27.428Z,5.20
2023-02-15T22:44:55.906Z,5.10
2023-02-15T22:47:37.270Z,5.00
2023-02-15T22:50:20.646Z,5.00
2023-02-15T22:52:49.259Z,4.90
2023-02-15T22:55:18.631Z,4.90
2023-02-15T22:57:48.449Z,5.60
2023-02-15T23:00:25.748Z,4.00
2023-02-15T23:02:53.949Z,4.80
2023-02-15T23:05:30.249Z,4.80
2023-02-15T23:07:58.085Z,4.70
2023-02-15T23:10:26.385Z,4.60
2023-02-15T23:13:14.448Z,4.70
2023-02-15T23:15:43.221Z,4.60
2023-02-15T23:18:19.224Z,4.60
2023-02-15T23:20:53.145Z,4.60
2023-02-15T23:23:28.437Z,4.60
2023-02-15T23:25:55.834Z,4.50
2023-02-15T23:28:27.512Z,5.40
2023-02-15T23:30:55.802Z,4.60
2023-02-15T23:33:27.348Z,3.60
2023-02-15T23:35:54.548Z,4.00
2023-02-15T23:38:27.109Z,4.60
2023-02-15T23:41:19.885Z,4.70
2023-02-15T23:43:49.659Z,4.50
2023-02-15T23:46:32.819Z,4.40
2023-02-15T23:48:59.972Z,4.40
2023-02-15T23:51:36.426Z,4.30
2023-02-15T23:54:03.782Z,3.60
2023-02-15T23:56:31.413Z,4.10
2023-02-15T23:58:58.856Z,4.40
